Dublin, NH

6:01 PM EST on December 08, 2016 (GMT -0500)
Nubanusit Neighborhood | | Change Station

Elev 820 ft 42.88 °N, 71.97 °W | Updated 21 seconds ago

Clear
Clear
34.2 °F
Feels Like 30 °F
N
4.2
Wind Variable Wind from WNW
Gusts 4.9 mph

Today
High -- | Low -- °F
--% Chance of Precip.
Yesterday
High -- | Low -- °F
Precip. -- in
Pressure 29.84 in
Visibility 10.0 miles
Clouds Clear
Windchill 30 °F
Dew Point 17 °F
Humidity 49%
Rainfall 0.04 in
Snow Depth Not available.
7:06 AM 4:13 PM
Waxing Gibbous, 67% visible
METAR KAFN 082252Z AUTO VRB06KT 10SM CLR 01/M08 A2978 RMK AO2 SLP103 T00061078
Pressure 29.84 in
Visibility 10.0 miles
Clouds Clear
Windchill 30 °F
Dew Point 17 °F
Humidity 49%
Rainfall 0.04 in
Snow Depth Not available.
7:06 AM 4:13 PM
Waxing Gibbous, 67% visible
METAR KAFN 082252Z AUTO VRB06KT 10SM CLR 01/M08 A2978 RMK AO2 SLP103 T00061078

10-Day Weather Forecast

Almanac

Astronomy

Dec. 08, 2016 Rise Set
Actual Time
Civil Twilight
Nautical Twilight
Astronomical Twilight
Moon
Length of Visible Light
Length of Day
Tomorrow will be .
, % of the Moon is Illuminated

Today's Extremes

State Highs State Lows

Community

WunderPhotos

Upload Photos

1,956,277 photos uploaded!

WunderBlog® & News

Nearby

Air Quality

  Air Quality AQ Index Pollutant
Not available.

Snow Depth

Station Depth Elevation

Earthquake Activity

City Distance Mag. Time & Date
Minimum magnitude displayed is 2.5.

Coastal Water Temperatures

Place Temperature

Stations

Nearby Weather Stations

Station Location Temp. Windchill Dew Point Humidity Wind Precip. Elev Updated Type
                   

Watches & Warnings

There are currently no watches in effect.